Schaupps, Nebraska
Current Conditions -  °F | °C
As of 3:15 AM on Saturday 22 Nov 2014 (Local Time) from KODX Reporting Station
Haze Haze  
Wind Chill: 27°   Ceiling: 400
Heat Index: 27°   Visibility: 4mi
Dew Point: 25°   Wind: 3mph
Humidity: 92%   Direction: 100°E
Pressure: 29.83"   Gusts: NA
Location:  41.3°N, 98.8143°W
Report Text: KODX 220915Z AUTO 10003KT 4SM BR BKN004 M03/M04 A2983 RMK AO2 T10281039
Loading
Personal Weather Stations






























Interactive Weather Map New forecast layout! Learn more

10-Day Weather Forecast

Advertisements
Track Severe Weather on mobile